Time;durP1;ratioP1;P1;durP2;ratioP2;P2;SDS_P1;SDS_P2;PMS_P1;PMS_P2;Temp;Humidity;BMP_temperature;BMP_pressure;BME280_temperature;BME280_humidity;BME280_pressure;Samples;Min_cycle;Max_cycle;Signal;HPM_P1;HPM_P2
2022/10/04 00:01:07;;;;;;;8.80;4.70;;;;;;;14.64;65.59;102311.81;5076788;28;20608;-62
2022/10/04 00:03:42;;;;;;;10.88;3.58;;;;;;;14.62;65.59;102303.91;5073100;28;20047;-62
2022/10/04 00:06:18;;;;;;;12.13;4.43;;;;;;;14.63;65.54;102310.16;5075803;28;20048;-61
2022/10/04 00:08:51;;;;;;;8.73;4.13;;;;;;;14.61;65.55;102304.97;5075492;28;20053;-62
2022/10/04 00:11:25;;;;;;;9.82;4.28;;;;;;;14.61;65.71;102312.25;5075153;28;20142;-61
2022/10/04 00:13:57;;;;;;;8.40;4.18;;;;;;;14.61;65.78;102306.84;5079004;28;20492;-61
2022/10/04 00:16:31;;;;;;;8.60;4.35;;;;;;;14.61;65.72;102306.84;5077941;28;20044;-62
2022/10/04 00:19:23;;;;;;;6.40;3.70;;;;;;;14.60;65.46;102303.31;5081590;28;20052;-62
2022/10/04 00:22:25;;;;;;;9.73;4.50;;;;;;;14.58;65.77;102294.56;5083283;28;20104;-61
2022/10/04 00:25:21;;;;;;;8.32;4.15;;;;;;;14.58;65.78;102294.56;4999369;28;20065;-61
2022/10/04 00:28:16;;;;;;;7.93;4.40;;;;;;;14.57;65.54;102292.06;4996865;28;20060;-61
2022/10/04 00:30:44;;;;;;;9.02;4.47;;;;;;;14.57;65.85;102289.38;4996493;28;20548;-62
2022/10/04 00:33:36;;;;;;;7.82;3.60;;;;;;;14.56;65.72;102290.41;4998630;28;20068;-62
2022/10/04 00:36:37;;;;;;;8.85;3.78;;;;;;;14.55;65.41;102278.75;5001976;28;20046;-62
2022/10/04 00:39:23;;;;;;;7.72;4.55;;;;;;;14.54;65.61;102270.84;4989961;28;20093;-61
2022/10/04 00:42:06;;;;;;;9.88;3.67;;;;;;;14.53;65.69;102271.91;4999960;28;20150;-62
2022/10/04 00:44:42;;;;;;;7.18;3.75;;;;;;;14.52;65.49;102265.66;4996212;28;20057;-61
2022/10/04 00:47:23;;;;;;;9.15;4.22;;;;;;;14.43;65.51;102260.69;4999569;28;20057;-62
2022/10/04 00:49:57;;;;;;;13.80;4.22;;;;;;;14.50;65.62;102269.63;5001676;28;20548;-62
2022/10/04 00:52:29;;;;;;;6.85;3.65;;;;;;;14.50;65.70;102275.03;4990511;28;20056;-61
2022/10/04 00:55:02;;;;;;;7.30;3.92;;;;;;;14.49;65.46;102270.66;5005718;28;20046;-61
2022/10/04 00:57:34;;;;;;;7.60;4.43;;;;;;;14.48;65.50;102283.34;5079033;28;20052;-61
2022/10/04 01:00:08;;;;;;;14.40;4.60;;;;;;;14.48;65.72;102267.13;5083152;28;20056;-61
2022/10/04 01:02:46;;;;;;;9.65;4.32;;;;;;;14.47;65.64;102267.34;5083464;28;20044;-62
2022/10/04 01:05:18;;;;;;;9.73;4.13;;;;;;;14.46;65.70;102260.28;5083360;28;20054;-61
2022/10/04 01:07:51;;;;;;;6.72;4.13;;;;;;;14.44;65.55;102252.38;5081748;28;20053;-61
2022/10/04 01:10:25;;;;;;;8.98;4.25;;;;;;;14.44;65.28;102249.66;5080778;28;20052;-61
2022/10/04 01:13:01;;;;;;;9.88;3.88;;;;;;;14.42;65.63;102249.03;5081120;28;20060;-61
2022/10/04 01:15:36;;;;;;;9.15;4.18;;;;;;;14.42;65.70;102249.03;5084238;28;20050;-61
2022/10/04 01:18:14;;;;;;;8.52;3.83;;;;;;;14.41;65.58;102239.25;5077499;28;20051;-62
2022/10/04 01:20:53;;;;;;;8.90;4.03;;;;;;;14.40;65.53;102228.63;5080395;28;20054;-61
2022/10/04 01:23:37;;;;;;;7.55;3.83;;;;;;;14.32;65.46;102217.00;5078495;28;20056;-61
2022/10/04 01:26:06;;;;;;;6.35;3.70;;;;;;;14.38;65.68;102234.25;5078950;28;20052;-62
2022/10/04 01:28:35;;;;;;;10.13;5.13;;;;;;;14.37;65.51;102232.59;5080480;28;20049;-61
2022/10/04 01:31:03;;;;;;;11.30;4.63;;;;;;;14.36;65.55;102228.22;5077676;28;20139;-61
2022/10/04 01:33:31;;;;;;;9.80;3.90;;;;;;;14.35;65.22;102234.69;5083849;28;20052;-61
2022/10/04 01:35:59;;;;;;;9.43;3.97;;;;;;;14.36;65.37;102227.41;5084092;28;20053;-61
2022/10/04 01:38:27;;;;;;;12.48;3.85;;;;;;;14.32;65.40;102222.41;5082147;28;20051;-61
2022/10/04 01:41:01;;;;;;;12.77;3.97;;;;;;;14.31;65.43;102218.03;5087142;28;20058;-61
2022/10/04 01:43:33;;;;;;;8.70;3.90;;;;;;;14.31;65.08;102215.34;5083795;28;20055;-62
2022/10/04 01:46:06;;;;;;;7.57;3.95;;;;;;;14.29;65.38;102217.44;5079459;28;20242;-61
2022/10/04 01:48:37;;;;;;;11.10;4.03;;;;;;;14.30;65.19;102220.97;5079154;28;20123;-61
2022/10/04 01:51:13;;;;;;;10.25;4.60;;;;;;;14.29;65.55;102219.31;5086273;28;20108;-61
2022/10/04 01:53:45;;;;;;;7.60;3.85;;;;;;;14.27;65.08;102214.09;5079614;28;20063;-61
2022/10/04 01:56:18;;;;;;;7.47;3.85;;;;;;;14.26;65.49;102211.63;5080296;28;20122;-61
2022/10/04 01:58:49;;;;;;;10.38;4.47;;;;;;;14.25;65.29;102213.50;5086336;28;20112;-61
2022/10/04 02:01:25;;;;;;;7.18;4.18;;;;;;;14.24;65.01;102211.00;5079992;28;20048;-62
2022/10/04 02:03:58;;;;;;;8.48;4.10;;;;;;;14.23;65.15;102210.16;5080629;28;20051;-61
2022/10/04 02:06:28;;;;;;;7.35;4.00;;;;;;;14.22;65.17;102208.50;5085582;28;20094;-61
2022/10/04 02:08:58;;;;;;;7.15;4.07;;;;;;;14.21;65.15;102201.44;5080639;28;20059;-61
2022/10/04 02:11:30;;;;;;;6.18;3.53;;;;;;;14.21;65.22;102203.31;5080906;28;20044;-61
2022/10/04 02:14:00;;;;;;;8.65;3.50;;;;;;;14.20;65.09;102202.47;5085261;28;20052;-62
2022/10/04 02:16:28;;;;;;;6.13;3.67;;;;;;;14.20;65.26;102199.78;5085930;28;20059;-61
2022/10/04 02:18:56;;;;;;;8.98;3.88;;;;;;;14.20;65.18;102201.66;5082950;28;20067;-61
2022/10/04 02:21:25;;;;;;;7.13;3.95;;;;;;;14.20;64.89;102194.38;5086092;28;20130;-61
2022/10/04 02:23:54;;;;;;;10.02;4.13;;;;;;;14.12;65.33;102181.09;5076593;28;20068;-61
2022/10/04 02:26:22;;;;;;;6.90;4.10;;;;;;;14.18;65.28;102187.50;5081389;28;20310;-61
2022/10/04 02:28:51;;;;;;;7.47;3.58;;;;;;;14.18;65.33;102182.09;5082991;28;20048;-61
2022/10/04 02:34:08;;;;;;;9.23;3.72;;;;;;;14.15;64.91;102175.25;5083399;28;20048;-61
2022/10/04 02:36:37;;;;;;;6.43;3.45;;;;;;;14.15;64.85;102169.84;5082734;28;20041;-61
2022/10/04 02:39:10;;;;;;;10.02;4.43;;;;;;;14.14;64.80;102162.78;5084907;28;20048;-61
2022/10/04 02:41:43;;;;;;;7.85;4.47;;;;;;;14.15;64.67;102160.91;5086711;28;20055;-62
2022/10/04 02:44:18;;;;;;;6.95;4.05;;;;;;;14.13;64.95;102146.75;5082997;28;20048;-62
2022/10/04 02:46:52;;;;;;;7.13;3.83;;;;;;;14.13;64.71;102146.75;5085645;28;20070;-62
2022/10/04 02:49:29;;;;;;;8.05;3.83;;;;;;;13.99;64.74;102118.94;5085185;28;20397;-61
2022/10/04 02:52:03;;;;;;;6.57;3.42;;;;;;;14.11;64.72;102138.88;5079353;28;20508;-61
2022/10/04 02:54:36;;;;;;;6.78;3.47;;;;;;;13.99;64.58;102114.38;5084418;28;20040;-61
2022/10/04 02:57:04;;;;;;;6.45;3.65;;;;;;;14.10;64.83;102126.41;5085095;28;20055;-61
2022/10/04 02:59:34;;;;;;;6.88;3.92;;;;;;;14.09;64.47;102127.44;5077042;28;20049;-61
2022/10/04 03:02:02;;;;;;;7.82;3.67;;;;;;;14.09;64.38;102132.84;5085438;28;20048;-62
2022/10/04 03:04:33;;;;;;;7.28;3.85;;;;;;;14.08;64.40;102108.72;5082813;28;20051;-61
2022/10/04 03:07:06;;;;;;;5.68;4.03;;;;;;;14.07;64.85;102109.78;5084775;28;20044;-61
2022/10/04 03:09:36;;;;;;;6.57;4.07;;;;;;;14.06;64.44;102103.53;5082163;28;20055;-61
2022/10/04 03:12:05;;;;;;;6.03;3.17;;;;;;;14.05;64.40;102107.28;5078663;28;20036;-61
2022/10/04 03:14:35;;;;;;;7.40;3.40;;;;;;;14.06;64.29;102102.72;5081293;28;20171;-62
2022/10/04 03:17:03;;;;;;;8.30;3.45;;;;;;;14.05;64.56;102096.47;5077550;28;20056;-61
2022/10/04 03:19:33;;;;;;;8.65;3.88;;;;;;;14.01;64.32;102095.25;5084985;28;20432;-61
2022/10/04 03:22:08;;;;;;;7.10;4.05;;;;;;;14.04;64.35;102094.81;5084032;28;20044;-61
2022/10/04 03:24:42;;;;;;;5.82;3.53;;;;;;;14.01;64.32;102085.25;5081729;28;20052;-62
2022/10/04 03:27:15;;;;;;;7.32;3.90;;;;;;;14.01;64.25;102090.66;5079214;28;20052;-62
2022/10/04 03:29:46;;;;;;;8.63;3.67;;;;;;;13.92;64.50;102085.72;5074235;28;20135;-62
2022/10/04 03:32:17;;;;;;;8.82;3.78;;;;;;;13.98;64.30;102099.19;5081709;28;20052;-61
2022/10/04 03:34:53;;;;;;;8.02;4.05;;;;;;;13.97;64.50;102094.00;5082842;28;20131;-61
2022/10/04 03:37:22;;;;;;;8.07;4.72;;;;;;;13.95;64.36;102091.53;5082307;28;20061;-62
2022/10/04 03:39:54;;;;;;;5.97;3.67;;;;;;;13.94;64.29;102089.84;5074775;28;20049;-61
2022/10/04 03:42:24;;;;;;;5.38;3.45;;;;;;;13.92;64.43;102083.00;5083814;28;20050;-61
2022/10/04 03:44:57;;;;;;;7.53;3.35;;;;;;;13.83;64.43;102071.63;5081313;28;20053;-62
2022/10/04 03:47:27;;;;;;;7.75;3.72;;;;;;;13.90;64.65;102088.63;5078989;28;20049;-61
2022/10/04 03:49:58;;;;;;;8.30;3.65;;;;;;;13.90;64.41;102080.53;5079663;28;20048;-61
2022/10/04 03:52:31;;;;;;;7.00;4.00;;;;;;;13.88;64.57;102076.38;5081184;28;20737;-62
2022/10/04 03:55:03;;;;;;;6.55;3.95;;;;;;;13.77;64.13;102055.44;5082215;28;20063;-61
2022/10/04 03:57:31;;;;;;;5.97;3.33;;;;;;;13.85;63.99;102066.84;5082596;28;20078;-61
2022/10/04 04:00:01;;;;;;;8.15;3.58;;;;;;;13.84;64.28;102064.34;5083535;28;20040;-62
2022/10/04 04:02:35;;;;;;;8.40;3.72;;;;;;;13.83;63.99;102062.69;5076150;28;20044;-61
2022/10/04 04:05:10;;;;;;;6.25;3.45;;;;;;;13.83;64.27;102060.00;5082946;28;20049;-61
2022/10/04 04:07:44;;;;;;;7.30;3.80;;;;;;;13.82;64.29;102063.75;5081136;28;20051;-62
2022/10/04 04:10:18;;;;;;;11.68;3.67;;;;;;;13.82;63.85;102069.97;5082763;28;20060;-61
2022/10/04 04:12:53;;;;;;;6.22;3.58;;;;;;;13.77;64.02;102055.44;5081738;28;20470;-62
2022/10/04 04:15:26;;;;;;;7.43;3.58;;;;;;;13.79;63.82;102062.31;5082170;28;20041;-62
2022/10/04 04:17:55;;;;;;;7.93;3.88;;;;;;;13.78;63.86;102068.75;5074720;28;20059;-61
2022/10/04 04:20:26;;;;;;;8.57;3.20;;;;;;;13.69;63.96;102045.72;5082953;28;20058;-62
2022/10/04 04:23:04;;;;;;;9.68;3.97;;;;;;;13.76;64.34;102068.13;5079282;28;20058;-61
2022/10/04 04:25:37;;;;;;;6.72;3.42;;;;;;;13.76;63.82;102067.28;5082415;28;20051;-61
2022/10/04 04:28:24;;;;;;;11.18;3.65;;;;;;;13.74;63.81;102062.09;5077954;28;20056;-61
2022/10/04 04:30:58;;;;;;;5.93;3.20;;;;;;;13.74;64.07;102062.09;5084695;28;20063;-62
2022/10/04 04:33:30;;;;;;;6.20;2.80;;;;;;;13.72;63.67;102061.50;5083402;28;20047;-64
2022/10/04 04:36:05;;;;;;;6.15;3.25;;;;;;;13.72;63.99;102066.06;5083086;28;20044;-62
2022/10/04 04:38:34;;;;;;;6.43;3.17;;;;;;;13.71;63.98;102072.50;5072164;28;20048;-61
2022/10/04 04:41:09;;;;;;;6.05;3.60;;;;;;;13.70;63.81;102068.97;5081088;28;20059;-62
2022/10/04 04:43:43;;;;;;;8.98;3.55;;;;;;;13.70;63.77;102074.38;5083587;28;20059;-62
2022/10/04 04:46:13;;;;;;;8.40;4.40;;;;;;;13.69;63.99;102072.72;5082403;28;20108;-62
2022/10/04 04:49:01;;;;;;;6.38;3.00;;;;;;;13.68;63.76;102071.91;5080340;28;20049;-61
2022/10/04 04:51:31;;;;;;;6.68;3.10;;;;;;;13.68;63.85;102066.50;5076014;28;20049;-61
2022/10/04 04:54:02;;;;;;;8.57;3.42;;;;;;;13.69;63.67;102053.81;5083250;28;20060;-61
2022/10/04 04:56:31;;;;;;;10.18;3.53;;;;;;;13.68;64.07;102052.16;5079104;28;20048;-65
2022/10/04 04:59:03;;;;;;;5.20;3.53;;;;;;;13.68;63.82;102047.59;5078431;28;20052;-61
2022/10/04 05:01:35;;;;;;;8.30;3.22;;;;;;;13.67;63.81;102042.38;5080768;28;20044;-62
2022/10/04 05:04:04;;;;;;;7.50;3.30;;;;;;;13.66;64.00;102041.56;5074151;28;20045;-62
2022/10/04 05:06:34;;;;;;;5.97;3.08;;;;;;;13.66;63.80;102033.44;5080816;28;20048;-61
2022/10/04 05:09:04;;;;;;;4.55;2.88;;;;;;;13.65;63.58;102034.50;5075785;28;20075;-62
2022/10/04 05:11:36;;;;;;;4.97;2.70;;;;;;;13.66;63.97;102033.44;5082129;28;20059;-61
2022/10/04 05:14:07;;;;;;;5.68;3.17;;;;;;;13.64;64.02;102038.25;5085612;28;20048;-61
2022/10/04 05:16:41;;;;;;;7.07;3.20;;;;;;;13.63;63.63;102031.19;5083187;28;20052;-60
2022/10/04 05:19:15;;;;;;;8.38;2.88;;;;;;;13.63;63.85;102044.69;5084571;28;20071;-60
2022/10/04 05:21:45;;;;;;;5.55;3.28;;;;;;;13.63;63.60;102041.16;5081187;28;20052;-60
2022/10/04 05:24:20;;;;;;;8.13;3.17;;;;;;;13.61;63.65;102033.25;5082664;28;20094;-60
2022/10/04 05:26:51;;;;;;;5.95;2.88;;;;;;;13.61;63.88;102046.78;5078990;28;20056;-62
2022/10/04 05:29:21;;;;;;;8.93;3.80;;;;;;;13.60;63.60;102053.22;5080347;28;20123;-63
2022/10/04 05:32:02;;;;;;;6.63;3.53;;;;;;;13.60;63.94;102044.28;5087698;28;20059;-63
2022/10/04 05:34:36;;;;;;;6.32;3.25;;;;;;;13.57;64.08;102047.41;5083670;28;20100;-62
2022/10/04 05:37:24;;;;;;;5.85;2.92;;;;;;;13.58;63.77;102047.19;5082372;28;20041;-62
2022/10/04 05:40:03;;;;;;;4.50;2.83;;;;;;;13.57;63.56;102047.41;5087455;28;20048;-62
2022/10/04 05:42:37;;;;;;;6.32;2.80;;;;;;;13.55;63.61;102054.91;5081539;28;20108;-62
2022/10/04 05:45:15;;;;;;;5.72;2.50;;;;;;;13.53;64.06;102048.88;5074381;28;20040;-62
2022/10/04 05:47:46;;;;;;;10.30;4.00;;;;;;;13.48;63.85;102048.69;4730270;28;10000617;-61
2022/10/04 05:50:20;;;;;;;10.18;3.97;;;;;;;13.47;64.06;102049.72;5076488;28;20603;-61
2022/10/04 05:52:51;;;;;;;5.85;3.08;;;;;;;13.45;63.67;102044.53;5078600;28;20048;-60
2022/10/04 05:55:27;;;;;;;9.35;3.15;;;;;;;13.46;63.72;102046.19;5080251;28;20059;-59
2022/10/04 05:58:22;;;;;;;7.18;3.17;;;;;;;13.46;63.77;102048.88;5078523;28;20124;-61
2022/10/04 06:01:09;;;;;;;6.93;3.28;;;;;;;13.34;63.69;102034.38;5077312;28;20054;-61
2022/10/04 06:03:56;;;;;;;5.85;3.03;;;;;;;13.47;63.49;102061.34;5080859;28;20070;-61
2022/10/04 06:06:31;;;;;;;6.63;3.22;;;;;;;13.47;63.61;102065.91;5074810;28;20049;-61
2022/10/04 06:09:13;;;;;;;10.52;3.63;;;;;;;13.46;63.43;102065.09;5073918;28;20075;-60
2022/10/04 06:11:54;;;;;;;4.63;3.03;;;;;;;13.46;63.44;102061.56;5078332;28;20053;-59
2022/10/04 06:14:48;;;;;;;10.27;4.05;;;;;;;13.45;63.40;102070.69;5080550;28;20736;-60
2022/10/04 06:17:28;;;;;;;8.90;3.38;;;;;;;13.42;63.79;102071.13;5078352;28;20053;-59
2022/10/04 06:20:35;;;;;;;8.35;3.17;;;;;;;13.41;64.11;102072.16;5078991;28;20048;-61
2022/10/04 06:23:11;;;;;;;9.95;3.17;;;;;;;13.40;64.12;102074.03;5073374;28;20059;-60
2022/10/04 06:25:43;;;;;;;;;;;;;;;13.39;63.59;102072.38;5082807;28;20492;-61
2022/10/04 06:28:18;;;;;;;6.50;3.20;;;;;;;13.40;63.61;102071.34;5078748;28;19931;-61
2022/10/04 06:31:17;;;;;;;6.10;2.80;;;;;;;13.30;63.80;102055.56;5070064;28;20069;-60
2022/10/04 06:34:06;;;;;;;8.18;3.00;;;;;;;13.31;63.95;102059.09;5081250;28;20047;-62
2022/10/04 06:36:53;;;;;;;3.70;2.30;;;;;;;13.39;63.87;102071.53;5075143;28;20045;-61
2022/10/04 06:39:42;;;;;;;9.70;2.72;;;;;;;13.37;63.73;102073.63;5081656;28;20055;-60
2022/10/04 06:42:23;;;;;;;6.32;3.20;;;;;;;13.38;63.45;102064.47;5082461;28;20040;-61
2022/10/04 06:45:08;;;;;;;5.20;2.40;;;;;;;13.36;63.85;102056.59;5078027;28;20243;-62
2022/10/04 06:48:00;;;;;;;7.93;2.80;;;;;;;13.37;64.05;102057.44;5081451;28;20048;-61
2022/10/04 06:50:38;;;;;;;8.65;2.92;;;;;;;13.27;63.99;102053.28;5071520;28;20045;-61
2022/10/04 06:53:25;;;;;;;6.50;3.00;;;;;;;13.35;63.68;102066.56;5079666;28;20458;-60
2022/10/04 06:56:15;;;;;;;5.28;2.40;;;;;;;13.35;63.52;102061.16;5074652;28;20044;-60
2022/10/04 06:59:13;;;;;;;6.43;3.13;;;;;;;13.38;63.45;102067.19;5077176;28;20048;-60
2022/10/04 07:01:49;;;;;;;4.65;2.50;;;;;;;13.37;63.99;102071.75;5070213;28;20116;-61
2022/10/04 07:04:28;;;;;;;9.50;3.20;;;;;;;13.35;64.01;102055.75;5073143;28;20159;-61
2022/10/04 07:07:34;;;;;;;9.52;3.20;;;;;;;13.36;63.86;102059.28;5080985;28;20056;-59
2022/10/04 07:10:18;;;;;;;5.95;2.80;;;;;;;13.37;64.01;102065.53;5079745;28;20052;-60
2022/10/04 07:12:54;;;;;;;6.45;2.60;;;;;;;13.37;63.63;102070.94;5075068;28;20047;-61
2022/10/04 07:15:26;;;;;;;4.80;2.63;;;;;;;13.36;63.56;102062.00;5080442;28;20164;-60
2022/10/04 07:17:58;;;;;;;9.77;2.92;;;;;;;13.34;63.80;102051.41;5073901;28;20118;-60
2022/10/04 07:20:32;;;;;;;5.80;2.55;;;;;;;13.35;63.62;102047.66;5077164;28;20551;-61
2022/10/04 07:23:04;;;;;;;4.65;2.50;;;;;;;13.35;63.99;102047.66;5082685;28;20067;-60
2022/10/04 07:25:37;;;;;;;8.07;2.80;;;;;;;13.37;63.43;102052.03;5082075;28;20196;-61
2022/10/04 07:31:04;;;;;;;5.82;2.80;;;;;;;13.37;63.91;102044.75;5078865;28;20045;-60
2022/10/04 07:33:36;;;;;;;4.80;2.67;;;;;;;13.36;63.62;102043.09;5076847;28;20048;-60
2022/10/04 07:36:08;;;;;;;7.22;2.60;;;;;;;13.37;63.66;102047.47;5084671;28;20067;-61
2022/10/04 07:38:44;;;;;;;8.95;2.70;;;;;;;13.38;63.36;102043.72;5081225;28;20048;-60
2022/10/04 07:41:22;;;;;;;8.57;2.55;;;;;;;13.39;63.85;102049.94;5074049;28;20143;-59
2022/10/04 07:43:55;;;;;;;6.68;2.65;;;;;;;13.40;63.37;102047.03;5082401;28;20067;-59
2022/10/04 07:46:45;;;;;;;5.40;2.25;;;;;;;13.31;63.57;102038.31;5085499;28;20052;-60
2022/10/04 07:49:15;;;;;;;7.38;4.10;;;;;;;13.41;63.38;102047.88;5077075;28;20050;-60
2022/10/04 07:51:55;;;;;;;6.32;3.20;;;;;;;13.39;63.91;102058.03;5085263;28;20055;-61
2022/10/04 07:54:34;;;;;;;10.98;3.53;;;;;;;13.39;63.54;102061.56;5084021;28;20056;-60
2022/10/04 07:57:12;;;;;;;7.03;2.38;;;;;;;13.39;63.98;102060.75;5080554;28;20056;-61
2022/10/04 07:59:53;;;;;;;4.63;2.67;;;;;;;13.40;63.97;102057.00;5077138;28;20049;-59
2022/10/04 08:02:31;;;;;;;5.38;2.30;;;;;;;13.40;64.24;102059.69;5077120;28;20063;-59
2022/10/04 08:05:15;;;;;;;5.95;2.40;;;;;;;13.39;64.19;102050.78;5081634;28;20048;-59
2022/10/04 08:08:00;;;;;;;5.35;2.80;;;;;;;13.40;63.60;102040.81;5074269;28;20062;-59
2022/10/04 08:10:34;;;;;;;4.07;1.95;;;;;;;13.38;63.92;102038.31;5074430;28;20049;-60
2022/10/04 08:13:10;;;;;;;11.45;3.65;;;;;;;13.44;65.26;102040.16;5080154;28;20064;-59
2022/10/04 08:15:39;;;;;;;8.18;2.70;;;;;;;13.47;64.09;102044.31;5078665;28;20558;-60
2022/10/04 08:18:25;;;;;;;9.77;3.20;;;;;;;13.44;63.73;102040.16;5075147;28;20052;-59
2022/10/04 08:20:58;;;;;;;5.57;2.67;;;;;;;13.48;63.99;102037.88;5073981;28;20524;-60
2022/10/04 08:23:56;;;;;;;5.15;2.38;;;;;;;13.47;64.14;102033.50;5074073;28;20147;-59
2022/10/04 08:26:44;;;;;;;3.85;2.20;;;;;;;13.48;64.00;102035.19;5081091;28;20040;-64
2022/10/04 08:29:41;;;;;;;5.72;2.88;;;;;;;13.47;64.23;102042.44;5073377;28;20496;-61
2022/10/04 08:32:23;;;;;;;7.07;2.83;;;;;;;13.49;64.66;102037.66;5075205;28;20067;-62
2022/10/04 08:35:15;;;;;;;6.35;2.70;;;;;;;13.50;65.20;102036.63;5080108;28;20245;-61
2022/10/04 08:37:58;;;;;;;6.35;3.15;;;;;;;13.49;64.73;102034.97;5074414;28;20171;-62
2022/10/04 08:40:47;;;;;;;7.63;3.22;;;;;;;13.53;65.10;102030.78;5078926;28;20079;-61
2022/10/04 08:43:48;;;;;;;8.88;2.65;;;;;;;13.53;64.49;102033.50;5076167;28;20423;-62
2022/10/04 08:46:42;;;;;;;6.80;2.80;;;;;;;13.55;64.98;102044.09;5070070;28;20053;-62
2022/10/04 08:49:40;;;;;;;4.78;2.83;;;;;;;13.55;64.55;102034.13;5070291;28;20091;-62
2022/10/04 08:52:51;;;;;;;7.45;3.35;;;;;;;13.53;64.60;102038.91;5074762;28;20060;-62
2022/10/04 08:55:39;;;;;;;5.00;2.72;;;;;;;13.56;64.98;102040.34;5036077;28;20054;-62
2022/10/04 08:58:16;;;;;;;6.38;3.00;;;;;;;13.57;65.27;102044.72;5029026;28;20056;-61
2022/10/04 09:01:32;;;;;;;7.60;3.83;;;;;;;13.58;64.86;102031.00;5030113;28;20065;-61
2022/10/04 09:04:29;;;;;;;9.40;3.00;;;;;;;13.62;65.30;102034.91;4978379;28;20055;-61
2022/10/04 09:07:12;;;;;;;9.05;2.88;;;;;;;13.63;65.55;102036.59;4954183;28;20421;-63
2022/10/04 09:09:56;;;;;;;8.32;3.00;;;;;;;13.65;65.54;102041.78;4974222;28;20114;-61
2022/10/04 09:12:49;;;;;;;5.50;2.70;;;;;;;13.64;65.47;102040.13;4978032;28;20074;-62
2022/10/04 09:15:42;;;;;;;7.43;2.70;;;;;;;13.64;65.38;102037.41;4979612;28;20050;-65
2022/10/04 09:18:22;;;;;;;6.95;2.92;;;;;;;13.65;65.46;102039.91;4973089;28;20057;-62
2022/10/04 09:21:00;;;;;;;8.93;2.75;;;;;;;13.58;65.88;102017.47;4976841;28;20137;-62
2022/10/04 09:24:12;;;;;;;5.45;2.47;;;;;;;13.69;65.64;102034.91;4977361;28;20055;-62
2022/10/04 09:26:44;;;;;;;6.53;2.55;;;;;;;13.70;66.01;102039.25;4974824;28;20070;-62
2022/10/04 09:29:33;;;;;;;6.28;3.03;;;;;;;13.73;65.81;102033.44;4977715;28;20058;-62
2022/10/04 09:32:30;;;;;;;5.82;2.78;;;;;;;13.79;65.76;102034.44;5030563;28;20054;-62
2022/10/04 09:35:18;;;;;;;5.30;3.05;;;;;;;13.78;65.64;102027.38;5031796;28;20125;-62
2022/10/04 09:38:02;;;;;;;5.45;2.50;;;;;;;13.80;66.39;102019.91;5025158;28;20049;-62
2022/10/04 09:41:13;;;;;;;5.32;3.15;;;;;;;13.81;66.34;102027.78;5066389;28;20067;-62
2022/10/04 09:44:16;;;;;;;9.50;3.22;;;;;;;13.83;66.53;102019.47;5034272;28;20137;-63
2022/10/04 09:46:58;;;;;;;7.20;3.10;;;;;;;13.85;66.12;102022.78;5036408;28;20149;-61
2022/10/04 09:49:49;;;;;;;8.60;2.55;;;;;;;13.89;66.45;102016.69;5033681;28;20088;-66
2022/10/04 09:52:37;;;;;;;8.15;3.15;;;;;;;13.90;66.30;102014.81;5035133;28;20049;-61
2022/10/04 09:55:35;;;;;;;7.60;3.55;;;;;;;13.91;66.37;102020.00;5032120;28;20072;-63
2022/10/04 09:58:28;;;;;;;6.20;2.80;;;;;;;13.94;66.23;102016.88;5034057;28;20056;-63
2022/10/04 10:01:06;;;;;;;6.90;3.10;;;;;;;13.96;66.12;102011.25;5037699;28;20052;-62
2022/10/04 10:04:05;;;;;;;8.30;3.10;;;;;;;13.97;66.26;102016.44;5040830;28;20455;-63
2022/10/04 10:06:59;;;;;;;5.88;2.80;;;;;;;14.00;66.28;102024.13;5033429;28;20050;-62
2022/10/04 10:15:38;;;;;;;5.68;2.60;;;;;;;14.17;66.35;102008.25;5039248;28;20049;-63
2022/10/04 10:18:17;;;;;;;12.23;3.53;;;;;;;14.17;66.53;102008.25;5064950;28;20473;-63
2022/10/04 10:21:02;;;;;;;6.70;3.10;;;;;;;14.18;66.54;102001.78;5077152;28;20049;-63
2022/10/04 10:23:48;;;;;;;5.13;2.78;;;;;;;14.18;66.62;101998.25;5081163;28;20053;-62
2022/10/04 10:26:43;;;;;;;8.05;3.25;;;;;;;14.20;66.24;101998.84;5080226;28;20048;-62
2022/10/04 10:30:03;;;;;;;7.57;3.20;;;;;;;14.22;66.69;101992.19;5080028;28;20056;-62
2022/10/04 10:33:00;;;;;;;6.60;3.17;;;;;;;14.23;66.70;101983.03;5079959;28;20054;-62
2022/10/04 10:35:42;;;;;;;6.43;2.75;;;;;;;14.28;66.33;101985.91;5072541;28;20455;-63
2022/10/04 10:38:28;;;;;;;5.85;2.78;;;;;;;14.38;67.17;101987.31;5080091;28;20045;-63
2022/10/04 10:41:29;;;;;;;4.82;2.65;;;;;;;14.39;66.82;101994.38;5083108;28;20052;-63
2022/10/04 10:44:20;;;;;;;4.60;3.03;;;;;;;14.39;66.82;101995.19;5078068;28;20509;-63
2022/10/04 10:47:07;;;;;;;9.27;3.67;;;;;;;14.42;66.65;101994.78;5077057;28;20059;-63
2022/10/04 10:49:53;;;;;;;8.48;2.50;;;;;;;14.45;66.65;101996.22;5085622;28;20083;-63
2022/10/04 10:52:58;;;;;;;7.75;2.65;;;;;;;14.47;66.48;101997.66;5076781;28;20055;-63
2022/10/04 10:55:33;;;;;;;9.32;3.08;;;;;;;14.50;66.92;101991.00;5084479;28;20048;-64
2022/10/04 10:58:32;;;;;;;6.93;2.67;;;;;;;14.43;66.90;101982.91;5085550;28;20048;-63
2022/10/04 11:01:15;;;;;;;7.85;2.90;;;;;;;14.55;66.83;102002.81;5075396;28;20099;-63
2022/10/04 11:04:18;;;;;;;6.47;3.30;;;;;;;14.58;66.85;101996.97;5086114;28;20094;-62
2022/10/04 11:07:12;;;;;;;8.10;2.78;;;;;;;14.65;66.62;102005.03;5071942;28;20052;-62
2022/10/04 11:10:28;;;;;;;4.32;2.70;;;;;;;14.69;67.18;101986.47;5079454;28;20048;-62
2022/10/04 11:13:25;;;;;;;6.32;2.58;;;;;;;14.74;67.45;101989.34;5022636;28;20069;-62
2022/10/04 11:16:33;;;;;;;6.15;2.92;;;;;;;14.90;68.56;101976.06;5008331;28;20050;-62
2022/10/04 11:19:37;;;;;;;11.35;3.35;;;;;;;14.92;67.77;101971.25;5017417;28;20049;-62
2022/10/04 11:22:29;;;;;;;5.57;2.83;;;;;;;14.93;67.36;101966.69;5019763;28;20052;-62
2022/10/04 11:25:28;;;;;;;4.20;2.30;;;;;;;14.95;68.23;101961.88;5019083;28;20085;-62
2022/10/04 11:28:06;;;;;;;6.80;3.33;;;;;;;14.98;68.00;101970.38;5020492;28;20046;-61
2022/10/04 11:31:06;;;;;;;6.15;2.78;;;;;;;14.98;68.15;101962.25;5021438;28;20065;-62
2022/10/04 11:34:16;;;;;;;6.20;2.75;;;;;;;15.00;67.02;101953.06;5027828;28;20053;-61
2022/10/04 11:37:00;;;;;;;8.27;2.65;;;;;;;15.00;67.17;101953.91;4997181;28;20042;-62
2022/10/04 11:40:01;;;;;;;6.70;2.78;;;;;;;15.03;67.08;101958.03;5014262;28;20061;-62
2022/10/04 11:42:55;;;;;;;6.32;2.83;;;;;;;15.07;67.22;101956.53;5014620;28;20179;-62
2022/10/04 11:45:55;;;;;;;5.50;2.33;;;;;;;15.10;67.01;101951.50;5021601;28;20057;-61
2022/10/04 11:48:38;;;;;;;5.80;2.22;;;;;;;15.13;67.27;101936.69;5042305;28;20051;-64
2022/10/04 11:51:39;;;;;;;6.32;2.70;;;;;;;15.17;67.60;101941.44;5083340;28;20461;-64
2022/10/04 11:54:46;;;;;;;3.88;2.53;;;;;;;15.36;68.02;101936.84;5071633;28;20052;-63
2022/10/04 11:57:31;;;;;;;5.18;2.60;;;;;;;15.57;66.66;101933.69;5078218;28;20475;-63
2022/10/04 12:00:09;;;;;;;11.20;3.08;;;;;;;15.71;67.08;101925.34;5081179;28;20048;-63
2022/10/04 12:02:55;;;;;;;12.55;3.25;;;;;;;15.71;66.73;101928.06;5078109;28;20116;-63
2022/10/04 12:05:48;;;;;;;4.88;2.58;;;;;;;15.66;67.01;101934.16;5084219;28;20048;-63
2022/10/04 12:08:25;;;;;;;5.95;2.80;;;;;;;15.68;66.87;101925.81;5078794;28;20059;-63
2022/10/04 12:12:35;;;;;;;6.53;2.65;;;;;;;15.74;65.92;101928.41;5081053;28;20048;-63
2022/10/04 12:14:25;;;;;;;7.20;3.20;;;;;;;15.75;66.21;101930.06;5077847;28;20502;-63
2022/10/04 12:17:37;;;;;;;7.07;2.88;;;;;;;15.75;65.97;101934.66;5071661;28;20356;-63
2022/10/04 12:20:32;;;;;;;7.40;2.30;;;;;;;15.82;65.64;101928.09;5071426;28;20045;-63
2022/10/04 12:23:29;;;;;;;5.43;2.55;;;;;;;15.74;65.92;101927.59;5079453;28;20049;-62
2022/10/04 12:26:44;;;;;;;5.40;2.90;;;;;;;15.74;66.00;101922.16;5080436;28;20059;-64
2022/10/04 12:29:35;;;;;;;5.88;2.78;;;;;;;15.75;65.97;101923.81;5021306;28;20466;-63
2022/10/04 12:32:09;;;;;;;6.30;3.05;;;;;;;15.90;65.28;101908.78;5017710;28;20058;-62
2022/10/04 12:34:47;;;;;;;8.55;3.15;;;;;;;15.90;65.59;101911.50;5016929;28;20503;-63
2022/10/04 12:37:29;;;;;;;8.90;3.10;;;;;;;15.84;66.45;101909.72;5021248;28;20057;-63
2022/10/04 12:40:19;;;;;;;7.30;2.83;;;;;;;15.92;65.30;101901.25;4668696;28;9999861;-62